sensor_id;sensor_type;location;lat;lon;timestamp;temperature;humidity
8043;DHT22;4064;48.132;11.366;2024-02-16T00:00:48;4.00;99.90
8043;DHT22;4064;48.132;11.366;2024-02-16T00:03:14;4.10;99.90
8043;DHT22;4064;48.132;11.366;2024-02-16T00:05:39;4.20;99.90
8043;DHT22;4064;48.132;11.366;2024-02-16T00:08:06;4.10;99.90
8043;DHT22;4064;48.132;11.366;2024-02-16T00:10:32;4.10;99.90
8043;DHT22;4064;48.132;11.366;2024-02-16T00:12:58;4.00;99.90
8043;DHT22;4064;48.132;11.366;2024-02-16T00:15:23;4.10;99.90
8043;DHT22;4064;48.132;11.366;2024-02-16T00:17:49;3.90;99.90
8043;DHT22;4064;48.132;11.366;2024-02-16T00:20:15;4.10;99.90
8043;DHT22;4064;48.132;11.366;2024-02-16T00:22:41;4.10;99.90
8043;DHT22;4064;48.132;11.366;2024-02-16T00:25:07;4.00;99.90
8043;DHT22;4064;48.132;11.366;2024-02-16T00:27:32;4.10;99.90
8043;DHT22;4064;48.132;11.366;2024-02-16T00:29:58;4.00;99.90
8043;DHT22;4064;48.132;11.366;2024-02-16T00:32:24;4.00;99.90
8043;DHT22;4064;48.132;11.366;2024-02-16T00:34:55;4.10;99.90
8043;DHT22;4064;48.132;11.366;2024-02-16T00:37:21;4.00;99.90
8043;DHT22;4064;48.132;11.366;2024-02-16T00:39:46;4.10;99.90
8043;DHT22;4064;48.132;11.366;2024-02-16T00:42:12;4.00;99.90
8043;DHT22;4064;48.132;11.366;2024-02-16T00:44:37;4.10;99.90
8043;DHT22;4064;48.132;11.366;2024-02-16T00:47:04;4.10;99.90
8043;DHT22;4064;48.132;11.366;2024-02-16T00:49:35;4.10;99.90
8043;DHT22;4064;48.132;11.366;2024-02-16T00:52:00;4.10;99.90
8043;DHT22;4064;48.132;11.366;2024-02-16T00:54:27;4.20;99.90
8043;DHT22;4064;48.132;11.366;2024-02-16T00:56:53;4.20;99.90
8043;DHT22;4064;48.132;11.366;2024-02-16T00:59:20;4.00;99.90
8043;DHT22;4064;48.132;11.366;2024-02-16T01:01:46;4.10;99.90
8043;DHT22;4064;48.132;11.366;2024-02-16T01:04:12;4.20;99.90
8043;DHT22;4064;48.132;11.366;2024-02-16T01:06:38;4.20;99.90
8043;DHT22;4064;48.132;11.366;2024-02-16T01:09:03;4.30;99.90
8043;DHT22;4064;48.132;11.366;2024-02-16T01:11:29;4.40;99.90
8043;DHT22;4064;48.132;11.366;2024-02-16T01:13:55;4.30;99.90
8043;DHT22;4064;48.132;11.366;2024-02-16T01:16:21;4.30;99.90
8043;DHT22;4064;48.132;11.366;2024-02-16T01:18:46;4.30;99.90
8043;DHT22;4064;48.132;11.366;2024-02-16T01:21:12;4.30;99.90
8043;DHT22;4064;48.132;11.366;2024-02-16T01:23:38;4.40;99.90
8043;DHT22;4064;48.132;11.366;2024-02-16T01:26:03;4.30;99.90
8043;DHT22;4064;48.132;11.366;2024-02-16T01:28:29;4.40;99.90
8043;DHT22;4064;48.132;11.366;2024-02-16T01:30:55;4.50;99.90
8043;DHT22;4064;48.132;11.366;2024-02-16T01:33:22;4.40;99.90
8043;DHT22;4064;48.132;11.366;2024-02-16T01:35:48;4.40;99.90
8043;DHT22;4064;48.132;11.366;2024-02-16T01:38:13;4.40;99.90
8043;DHT22;4064;48.132;11.366;2024-02-16T01:40:39;4.20;99.90
8043;DHT22;4064;48.132;11.366;2024-02-16T01:43:05;4.00;99.90
8043;DHT22;4064;48.132;11.366;2024-02-16T01:45:31;4.30;99.90
8043;DHT22;4064;48.132;11.366;2024-02-16T01:47:57;4.40;99.90
8043;DHT22;4064;48.132;11.366;2024-02-16T01:50:23;4.30;99.90
8043;DHT22;4064;48.132;11.366;2024-02-16T01:52:50;4.50;99.90
8043;DHT22;4064;48.132;11.366;2024-02-16T01:55:16;4.50;99.90
8043;DHT22;4064;48.132;11.366;2024-02-16T01:57:47;4.40;99.90
8043;DHT22;4064;48.132;11.366;2024-02-16T02:00:14;4.10;99.90
8043;DHT22;4064;48.132;11.366;2024-02-16T02:02:41;4.20;99.90
8043;DHT22;4064;48.132;11.366;2024-02-16T02:05:09;4.30;99.90
8043;DHT22;4064;48.132;11.366;2024-02-16T02:07:35;4.40;99.90
8043;DHT22;4064;48.132;11.366;2024-02-16T02:10:00;4.50;99.90
8043;DHT22;4064;48.132;11.366;2024-02-16T02:12:26;4.50;99.90
8043;DHT22;4064;48.132;11.366;2024-02-16T02:14:52;4.50;99.90
8043;DHT22;4064;48.132;11.366;2024-02-16T02:17:18;4.50;99.90
8043;DHT22;4064;48.132;11.366;2024-02-16T02:19:48;4.50;99.90
8043;DHT22;4064;48.132;11.366;2024-02-16T02:22:19;4.50;99.90
8043;DHT22;4064;48.132;11.366;2024-02-16T02:24:45;4.50;99.90
8043;DHT22;4064;48.132;11.366;2024-02-16T02:27:11;4.50;99.90
8043;DHT22;4064;48.132;11.366;2024-02-16T02:29:38;4.50;99.90
8043;DHT22;4064;48.132;11.366;2024-02-16T02:32:05;4.50;99.90
8043;DHT22;4064;48.132;11.366;2024-02-16T02:34:31;4.60;99.90
8043;DHT22;4064;48.132;11.366;2024-02-16T02:36:56;4.60;99.90
8043;DHT22;4064;48.132;11.366;2024-02-16T02:39:23;4.50;99.90
8043;DHT22;4064;48.132;11.366;2024-02-16T02:41:48;4.50;99.90
8043;DHT22;4064;48.132;11.366;2024-02-16T02:44:14;4.50;99.90
8043;DHT22;4064;48.132;11.366;2024-02-16T02:46:40;4.50;99.90
8043;DHT22;4064;48.132;11.366;2024-02-16T02:49:06;4.50;99.90
8043;DHT22;4064;48.132;11.366;2024-02-16T02:51:32;4.50;99.90
8043;DHT22;4064;48.132;11.366;2024-02-16T02:53:58;4.30;99.90
8043;DHT22;4064;48.132;11.366;2024-02-16T02:56:24;4.40;99.90
8043;DHT22;4064;48.132;11.366;2024-02-16T02:58:49;4.50;99.90
8043;DHT22;4064;48.132;11.366;2024-02-16T03:01:15;4.60;99.90
8043;DHT22;4064;48.132;11.366;2024-02-16T03:03:41;4.60;99.90
8043;DHT22;4064;48.132;11.366;2024-02-16T03:06:08;4.60;99.90
8043;DHT22;4064;48.132;11.366;2024-02-16T03:08:35;4.60;99.90
8043;DHT22;4064;48.132;11.366;2024-02-16T03:11:00;4.40;99.90
8043;DHT22;4064;48.132;11.366;2024-02-16T03:13:27;4.40;99.90
8043;DHT22;4064;48.132;11.366;2024-02-16T03:15:53;4.50;99.90
8043;DHT22;4064;48.132;11.366;2024-02-16T03:18:19;4.60;99.90
8043;DHT22;4064;48.132;11.366;2024-02-16T03:20:45;4.70;99.90
8043;DHT22;4064;48.132;11.366;2024-02-16T03:23:14;4.60;99.90
8043;DHT22;4064;48.132;11.366;2024-02-16T03:25:40;4.60;99.90
8043;DHT22;4064;48.132;11.366;2024-02-16T03:28:12;4.50;99.90
8043;DHT22;4064;48.132;11.366;2024-02-16T03:30:38;4.50;99.90
8043;DHT22;4064;48.132;11.366;2024-02-16T03:33:04;4.60;99.90
8043;DHT22;4064;48.132;11.366;2024-02-16T03:35:30;4.50;99.90
8043;DHT22;4064;48.132;11.366;2024-02-16T03:37:56;4.50;99.90
8043;DHT22;4064;48.132;11.366;2024-02-16T03:40:23;4.50;99.90
8043;DHT22;4064;48.132;11.366;2024-02-16T03:42:50;4.70;99.90
8043;DHT22;4064;48.132;11.366;2024-02-16T03:45:16;4.70;99.90
8043;DHT22;4064;48.132;11.366;2024-02-16T03:47:42;4.70;99.90
8043;DHT22;4064;48.132;11.366;2024-02-16T03:50:08;4.70;99.90
8043;DHT22;4064;48.132;11.366;2024-02-16T03:52:34;4.60;99.90
8043;DHT22;4064;48.132;11.366;2024-02-16T03:54:59;4.70;99.90
8043;DHT22;4064;48.132;11.366;2024-02-16T03:57:25;4.70;99.90
8043;DHT22;4064;48.132;11.366;2024-02-16T03:59:52;4.60;99.90
8043;DHT22;4064;48.132;11.366;2024-02-16T04:02:17;4.70;99.90
8043;DHT22;4064;48.132;11.366;2024-02-16T04:04:44;4.70;99.90
8043;DHT22;4064;48.132;11.366;2024-02-16T04:07:10;4.80;99.90
8043;DHT22;4064;48.132;11.366;2024-02-16T04:09:36;4.80;99.90
8043;DHT22;4064;48.132;11.366;2024-02-16T04:12:02;4.90;99.90
8043;DHT22;4064;48.132;11.366;2024-02-16T04:14:31;4.80;99.90
8043;DHT22;4064;48.132;11.366;2024-02-16T04:16:59;4.90;99.90
8043;DHT22;4064;48.132;11.366;2024-02-16T04:19:28;4.90;99.90
8043;DHT22;4064;48.132;11.366;2024-02-16T04:21:54;4.90;99.90
8043;DHT22;4064;48.132;11.366;2024-02-16T04:24:20;4.90;99.90
8043;DHT22;4064;48.132;11.366;2024-02-16T04:26:46;4.90;99.90
8043;DHT22;4064;48.132;11.366;2024-02-16T04:29:15;5.00;99.90
8043;DHT22;4064;48.132;11.366;2024-02-16T04:31:42;5.00;99.90
8043;DHT22;4064;48.132;11.366;2024-02-16T04:34:10;5.00;99.90
8043;DHT22;4064;48.132;11.366;2024-02-16T04:36:36;5.10;99.90
8043;DHT22;4064;48.132;11.366;2024-02-16T04:39:02;5.10;99.90
8043;DHT22;4064;48.132;11.366;2024-02-16T04:41:27;5.10;99.90
8043;DHT22;4064;48.132;11.366;2024-02-16T04:43:53;5.20;99.90
8043;DHT22;4064;48.132;11.366;2024-02-16T04:46:19;5.20;99.90
8043;DHT22;4064;48.132;11.366;2024-02-16T04:48:45;5.20;99.90
8043;DHT22;4064;48.132;11.366;2024-02-16T04:51:11;5.20;99.90
8043;DHT22;4064;48.132;11.366;2024-02-16T04:53:37;5.20;99.90
8043;DHT22;4064;48.132;11.366;2024-02-16T04:56:03;5.20;99.90
8043;DHT22;4064;48.132;11.366;2024-02-16T04:58:30;5.30;99.90
8043;DHT22;4064;48.132;11.366;2024-02-16T05:00:56;5.30;99.90
8043;DHT22;4064;48.132;11.366;2024-02-16T05:03:22;5.30;99.90
8043;DHT22;4064;48.132;11.366;2024-02-16T05:05:48;5.20;99.90
8043;DHT22;4064;48.132;11.366;2024-02-16T05:08:14;5.20;99.90
8043;DHT22;4064;48.132;11.366;2024-02-16T05:10:39;5.30;99.90
8043;DHT22;4064;48.132;11.366;2024-02-16T05:13:05;5.30;99.90
8043;DHT22;4064;48.132;11.366;2024-02-16T05:15:31;5.30;99.90
8043;DHT22;4064;48.132;11.366;2024-02-16T05:17:57;5.40;99.90
8043;DHT22;4064;48.132;11.366;2024-02-16T05:20:23;5.30;99.90
8043;DHT22;4064;48.132;11.366;2024-02-16T05:22:49;5.40;99.90
8043;DHT22;4064;48.132;11.366;2024-02-16T05:25:18;5.40;99.90
8043;DHT22;4064;48.132;11.366;2024-02-16T05:27:45;5.40;99.90
8043;DHT22;4064;48.132;11.366;2024-02-16T05:30:11;5.40;99.90
8043;DHT22;4064;48.132;11.366;2024-02-16T05:32:40;5.40;99.90
8043;DHT22;4064;48.132;11.366;2024-02-16T05:35:06;5.50;99.90
8043;DHT22;4064;48.132;11.366;2024-02-16T05:37:44;5.50;99.90
8043;DHT22;4064;48.132;11.366;2024-02-16T05:40:11;5.50;99.90
8043;DHT22;4064;48.132;11.366;2024-02-16T05:42:59;5.50;99.90
8043;DHT22;4064;48.132;11.366;2024-02-16T05:45:25;5.50;99.90
8043;DHT22;4064;48.132;11.366;2024-02-16T05:47:52;5.50;99.90
8043;DHT22;4064;48.132;11.366;2024-02-16T05:50:20;5.50;99.90
8043;DHT22;4064;48.132;11.366;2024-02-16T05:52:46;5.50;99.90
8043;DHT22;4064;48.132;11.366;2024-02-16T05:55:12;5.50;99.90
8043;DHT22;4064;48.132;11.366;2024-02-16T05:57:38;5.60;99.90
8043;DHT22;4064;48.132;11.366;2024-02-16T06:00:06;5.60;99.90
8043;DHT22;4064;48.132;11.366;2024-02-16T06:02:32;5.60;99.90
8043;DHT22;4064;48.132;11.366;2024-02-16T06:04:59;5.70;99.90
8043;DHT22;4064;48.132;11.366;2024-02-16T06:07:25;5.70;99.90
8043;DHT22;4064;48.132;11.366;2024-02-16T06:09:51;5.70;99.90
8043;DHT22;4064;48.132;11.366;2024-02-16T06:12:17;5.80;99.90
8043;DHT22;4064;48.132;11.366;2024-02-16T06:14:43;5.80;99.90
8043;DHT22;4064;48.132;11.366;2024-02-16T06:17:08;5.80;99.90
8043;DHT22;4064;48.132;11.366;2024-02-16T06:19:37;5.80;99.90
8043;DHT22;4064;48.132;11.366;2024-02-16T06:22:03;5.80;99.90
8043;DHT22;4064;48.132;11.366;2024-02-16T06:24:29;5.90;99.90
8043;DHT22;4064;48.132;11.366;2024-02-16T06:26:55;5.90;99.90
8043;DHT22;4064;48.132;11.366;2024-02-16T06:29:21;5.90;99.90
8043;DHT22;4064;48.132;11.366;2024-02-16T06:31:47;6.00;99.90
8043;DHT22;4064;48.132;11.366;2024-02-16T06:34:16;6.00;99.90
8043;DHT22;4064;48.132;11.366;2024-02-16T06:36:42;6.00;99.90
8043;DHT22;4064;48.132;11.366;2024-02-16T06:39:08;6.10;99.90
8043;DHT22;4064;48.132;11.366;2024-02-16T06:41:35;6.10;99.90
8043;DHT22;4064;48.132;11.366;2024-02-16T06:44:01;6.00;99.90
8043;DHT22;4064;48.132;11.366;2024-02-16T06:46:27;6.10;99.90
8043;DHT22;4064;48.132;11.366;2024-02-16T06:48:55;6.10;99.90
8043;DHT22;4064;48.132;11.366;2024-02-16T06:51:23;6.10;99.90
8043;DHT22;4064;48.132;11.366;2024-02-16T06:53:49;6.10;99.90
8043;DHT22;4064;48.132;11.366;2024-02-16T06:56:15;6.20;99.90
8043;DHT22;4064;48.132;11.366;2024-02-16T06:58:40;6.30;99.90
8043;DHT22;4064;48.132;11.366;2024-02-16T07:01:07;6.30;99.90
8043;DHT22;4064;48.132;11.366;2024-02-16T07:03:33;6.40;99.90
8043;DHT22;4064;48.132;11.366;2024-02-16T07:05:58;6.40;99.90
8043;DHT22;4064;48.132;11.366;2024-02-16T07:08:24;6.50;99.90
8043;DHT22;4064;48.132;11.366;2024-02-16T07:10:51;6.50;99.90
8043;DHT22;4064;48.132;11.366;2024-02-16T07:13:18;6.60;99.90
8043;DHT22;4064;48.132;11.366;2024-02-16T07:15:44;6.60;99.90
8043;DHT22;4064;48.132;11.366;2024-02-16T07:18:09;6.70;99.90
8043;DHT22;4064;48.132;11.366;2024-02-16T07:20:35;6.70;99.90
8043;DHT22;4064;48.132;11.366;2024-02-16T07:23:02;6.80;99.90
8043;DHT22;4064;48.132;11.366;2024-02-16T07:25:28;6.80;99.90
8043;DHT22;4064;48.132;11.366;2024-02-16T07:27:53;6.80;99.90
8043;DHT22;4064;48.132;11.366;2024-02-16T07:30:19;6.90;99.90
8043;DHT22;4064;48.132;11.366;2024-02-16T07:32:51;6.90;99.90
8043;DHT22;4064;48.132;11.366;2024-02-16T07:35:18;7.00;99.90
8043;DHT22;4064;48.132;11.366;2024-02-16T07:37:44;7.00;99.90
8043;DHT22;4064;48.132;11.366;2024-02-16T07:40:12;7.10;99.90
8043;DHT22;4064;48.132;11.366;2024-02-16T07:42:40;7.10;99.90
8043;DHT22;4064;48.132;11.366;2024-02-16T07:45:08;7.10;99.90
8043;DHT22;4064;48.132;11.366;2024-02-16T07:47:35;7.20;99.90
8043;DHT22;4064;48.132;11.366;2024-02-16T07:50:01;7.20;99.90
8043;DHT22;4064;48.132;11.366;2024-02-16T07:52:27;7.30;99.90
8043;DHT22;4064;48.132;11.366;2024-02-16T07:54:52;7.30;99.90
8043;DHT22;4064;48.132;11.366;2024-02-16T07:57:18;7.40;99.90
8043;DHT22;4064;48.132;11.366;2024-02-16T07:59:43;7.50;99.90
8043;DHT22;4064;48.132;11.366;2024-02-16T08:02:10;7.60;99.90
8043;DHT22;4064;48.132;11.366;2024-02-16T08:04:41;7.70;99.90
8043;DHT22;4064;48.132;11.366;2024-02-16T08:07:07;7.90;99.90
8043;DHT22;4064;48.132;11.366;2024-02-16T08:09:33;8.00;99.90
8043;DHT22;4064;48.132;11.366;2024-02-16T08:11:59;8.10;99.90
8043;DHT22;4064;48.132;11.366;2024-02-16T08:14:25;8.20;99.90
8043;DHT22;4064;48.132;11.366;2024-02-16T08:16:51;8.30;99.90
8043;DHT22;4064;48.132;11.366;2024-02-16T08:19:16;8.40;99.90
8043;DHT22;4064;48.132;11.366;2024-02-16T08:21:42;8.60;99.90
8043;DHT22;4064;48.132;11.366;2024-02-16T08:24:08;9.00;99.90
8043;DHT22;4064;48.132;11.366;2024-02-16T08:26:33;9.20;99.90
8043;DHT22;4064;48.132;11.366;2024-02-16T08:28:59;9.10;99.90
8043;DHT22;4064;48.132;11.366;2024-02-16T08:31:25;9.10;99.90
8043;DHT22;4064;48.132;11.366;2024-02-16T08:33:50;9.10;99.90
8043;DHT22;4064;48.132;11.366;2024-02-16T08:36:16;9.10;99.90
8043;DHT22;4064;48.132;11.366;2024-02-16T08:38:42;9.20;99.90
8043;DHT22;4064;48.132;11.366;2024-02-16T08:41:08;9.30;99.90
8043;DHT22;4064;48.132;11.366;2024-02-16T08:43:33;9.40;99.90
8043;DHT22;4064;48.132;11.366;2024-02-16T08:45:59;9.50;99.90
8043;DHT22;4064;48.132;11.366;2024-02-16T08:48:25;9.60;99.90
8043;DHT22;4064;48.132;11.366;2024-02-16T08:50:51;9.60;99.90
8043;DHT22;4064;48.132;11.366;2024-02-16T08:53:17;9.80;99.90
8043;DHT22;4064;48.132;11.366;2024-02-16T08:55:42;9.80;99.90
8043;DHT22;4064;48.132;11.366;2024-02-16T08:58:08;10.00;99.90
8043;DHT22;4064;48.132;11.366;2024-02-16T09:00:34;10.10;99.90
8043;DHT22;4064;48.132;11.366;2024-02-16T09:03:00;10.20;99.90
8043;DHT22;4064;48.132;11.366;2024-02-16T09:05:29;10.40;99.90
8043;DHT22;4064;48.132;11.366;2024-02-16T09:07:54;10.60;99.90
8043;DHT22;4064;48.132;11.366;2024-02-16T09:10:20;10.80;99.90
8043;DHT22;4064;48.132;11.366;2024-02-16T09:12:46;10.90;99.90
8043;DHT22;4064;48.132;11.366;2024-02-16T09:15:12;11.30;99.90
8043;DHT22;4064;48.132;11.366;2024-02-16T09:17:38;11.80;99.90
8043;DHT22;4064;48.132;11.366;2024-02-16T09:20:04;11.90;99.90
8043;DHT22;4064;48.132;11.366;2024-02-16T09:22:33;12.20;99.90
8043;DHT22;4064;48.132;11.366;2024-02-16T09:24:59;12.60;99.90
8043;DHT22;4064;48.132;11.366;2024-02-16T09:27:25;13.70;99.90
8043;DHT22;4064;48.132;11.366;2024-02-16T09:29:51;14.70;99.90
8043;DHT22;4064;48.132;11.366;2024-02-16T09:32:17;15.10;99.90
8043;DHT22;4064;48.132;11.366;2024-02-16T09:34:43;16.30;99.90
8043;DHT22;4064;48.132;11.366;2024-02-16T09:37:10;16.30;99.90
8043;DHT22;4064;48.132;11.366;2024-02-16T09:39:38;16.20;99.90
8043;DHT22;4064;48.132;11.366;2024-02-16T09:42:04;15.80;99.90
8043;DHT22;4064;48.132;11.366;2024-02-16T09:44:30;15.70;98.50
8043;DHT22;4064;48.132;11.366;2024-02-16T09:46:57;15.70;97.60
8043;DHT22;4064;48.132;11.366;2024-02-16T09:49:26;16.40;97.80
8043;DHT22;4064;48.132;11.366;2024-02-16T09:51:53;17.00;95.00
8043;DHT22;4064;48.132;11.366;2024-02-16T09:54:21;17.30;93.90
8043;DHT22;4064;48.132;11.366;2024-02-16T09:56:47;17.40;92.90
8043;DHT22;4064;48.132;11.366;2024-02-16T09:59:13;17.10;93.70
8043;DHT22;4064;48.132;11.366;2024-02-16T10:01:39;17.00;92.70
8043;DHT22;4064;48.132;11.366;2024-02-16T10:04:07;16.80;92.80
8043;DHT22;4064;48.132;11.366;2024-02-16T10:06:39;16.60;93.70
8043;DHT22;4064;48.132;11.366;2024-02-16T10:09:10;16.50;92.60
8043;DHT22;4064;48.132;11.366;2024-02-16T10:11:37;16.30;92.80
8043;DHT22;4064;48.132;11.366;2024-02-16T10:14:04;16.50;91.90
8043;DHT22;4064;48.132;11.366;2024-02-16T10:16:31;16.40;91.90
8043;DHT22;4064;48.132;11.366;2024-02-16T10:19:06;17.00;91.50
8043;DHT22;4064;48.132;11.366;2024-02-16T10:21:33;17.50;91.40
8043;DHT22;4064;48.132;11.366;2024-02-16T10:24:05;17.70;89.40
8043;DHT22;4064;48.132;11.366;2024-02-16T10:26:37;18.10;90.00
8043;DHT22;4064;48.132;11.366;2024-02-16T10:29:04;18.30;85.90
8043;DHT22;4064;48.132;11.366;2024-02-16T10:31:31;18.00;86.60
8043;DHT22;4064;48.132;11.366;2024-02-16T10:33:59;18.50;86.90
8043;DHT22;4064;48.132;11.366;2024-02-16T10:36:25;18.80;82.20
8043;DHT22;4064;48.132;11.366;2024-02-16T10:38:55;18.90;84.20
8043;DHT22;4064;48.132;11.366;2024-02-16T10:41:27;18.80;82.30
8043;DHT22;4064;48.132;11.366;2024-02-16T10:43:56;18.90;80.00
8043;DHT22;4064;48.132;11.366;2024-02-16T10:46:23;19.30;80.80
8043;DHT22;4064;48.132;11.366;2024-02-16T10:48:50;19.60;80.40
8043;DHT22;4064;48.132;11.366;2024-02-16T10:51:18;19.60;78.00
8043;DHT22;4064;48.132;11.366;2024-02-16T10:53:46;20.00;78.80
8043;DHT22;4064;48.132;11.366;2024-02-16T10:56:13;20.00;78.30
8043;DHT22;4064;48.132;11.366;2024-02-16T10:58:39;19.90;76.80
8043;DHT22;4064;48.132;11.366;2024-02-16T11:01:15;19.90;76.30
8043;DHT22;4064;48.132;11.366;2024-02-16T11:03:41;19.90;76.80
8043;DHT22;4064;48.132;11.366;2024-02-16T11:06:16;19.60;75.70
8043;DHT22;4064;48.132;11.366;2024-02-16T11:08:43;19.50;76.80
8043;DHT22;4064;48.132;11.366;2024-02-16T11:11:08;19.50;77.50
8043;DHT22;4064;48.132;11.366;2024-02-16T11:13:37;19.50;77.80
8043;DHT22;4064;48.132;11.366;2024-02-16T11:16:09;19.30;78.20
8043;DHT22;4064;48.132;11.366;2024-02-16T11:18:41;19.60;78.30
8043;DHT22;4064;48.132;11.366;2024-02-16T11:21:14;19.50;78.40
8043;DHT22;4064;48.132;11.366;2024-02-16T11:23:40;19.40;76.80
8043;DHT22;4064;48.132;11.366;2024-02-16T11:26:10;19.60;78.20
8043;DHT22;4064;48.132;11.366;2024-02-16T11:28:41;19.60;78.90
8043;DHT22;4064;48.132;11.366;2024-02-16T11:31:07;19.40;76.80
8043;DHT22;4064;48.132;11.366;2024-02-16T11:33:33;19.10;77.60
8043;DHT22;4064;48.132;11.366;2024-02-16T11:36:01;19.00;78.70
8043;DHT22;4064;48.132;11.366;2024-02-16T11:38:30;19.10;78.60
8043;DHT22;4064;48.132;11.366;2024-02-16T11:40:58;19.10;78.50
8043;DHT22;4064;48.132;11.366;2024-02-16T11:43:24;19.50;78.00
8043;DHT22;4064;48.132;11.366;2024-02-16T11:45:50;19.40;79.80
8043;DHT22;4064;48.132;11.366;2024-02-16T11:48:23;19.50;78.90
8043;DHT22;4064;48.132;11.366;2024-02-16T11:50:58;19.40;77.70
8043;DHT22;4064;48.132;11.366;2024-02-16T11:53:23;19.70;78.60
8043;DHT22;4064;48.132;11.366;2024-02-16T11:55:49;19.70;77.00
8043;DHT22;4064;48.132;11.366;2024-02-16T11:58:19;19.90;78.30
8043;DHT22;4064;48.132;11.366;2024-02-16T12:00:46;19.80;77.20
8043;DHT22;4064;48.132;11.366;2024-02-16T12:03:26;20.10;78.10
8043;DHT22;4064;48.132;11.366;2024-02-16T12:05:58;20.10;76.20
8043;DHT22;4064;48.132;11.366;2024-02-16T12:08:31;20.10;77.80
8043;DHT22;4064;48.132;11.366;2024-02-16T12:10:57;20.30;78.20
8043;DHT22;4064;48.132;11.366;2024-02-16T12:13:23;20.80;77.30
8043;DHT22;4064;48.132;11.366;2024-02-16T12:15:50;20.60;74.20
8043;DHT22;4064;48.132;11.366;2024-02-16T12:18:28;20.00;76.30
8043;DHT22;4064;48.132;11.366;2024-02-16T12:21:05;20.10;76.50
8043;DHT22;4064;48.132;11.366;2024-02-16T12:23:32;20.20;76.60
8043;DHT22;4064;48.132;11.366;2024-02-16T12:26:01;20.40;76.70
8043;DHT22;4064;48.132;11.366;2024-02-16T12:28:29;20.70;77.20
8043;DHT22;4064;48.132;11.366;2024-02-16T12:30:57;20.80;77.30
8043;DHT22;4064;48.132;11.366;2024-02-16T12:33:23;20.50;75.40
8043;DHT22;4064;48.132;11.366;2024-02-16T12:35:49;20.50;75.70
8043;DHT22;4064;48.132;11.366;2024-02-16T12:38:15;20.50;74.90
8043;DHT22;4064;48.132;11.366;2024-02-16T12:40:47;20.50;74.60
8043;DHT22;4064;48.132;11.366;2024-02-16T12:43:14;20.70;73.50
8043;DHT22;4064;48.132;11.366;2024-02-16T12:45:40;20.70;74.40
8043;DHT22;4064;48.132;11.366;2024-02-16T12:48:06;20.70;75.10
8043;DHT22;4064;48.132;11.366;2024-02-16T12:50:33;20.60;75.00
8043;DHT22;4064;48.132;11.366;2024-02-16T12:52:58;20.50;77.30
8043;DHT22;4064;48.132;11.366;2024-02-16T12:55:25;20.50;77.50
8043;DHT22;4064;48.132;11.366;2024-02-16T12:57:51;20.20;74.30
8043;DHT22;4064;48.132;11.366;2024-02-16T13:00:17;20.00;77.60
8043;DHT22;4064;48.132;11.366;2024-02-16T13:02:43;19.70;77.30
8043;DHT22;4064;48.132;11.366;2024-02-16T13:05:09;19.90;79.40
8043;DHT22;4064;48.132;11.366;2024-02-16T13:07:36;20.00;78.10
8043;DHT22;4064;48.132;11.366;2024-02-16T13:10:03;19.80;78.10
8043;DHT22;4064;48.132;11.366;2024-02-16T13:12:29;19.30;77.50
8043;DHT22;4064;48.132;11.366;2024-02-16T13:14:54;19.00;78.30
8043;DHT22;4064;48.132;11.366;2024-02-16T13:17:20;18.80;79.90
8043;DHT22;4064;48.132;11.366;2024-02-16T13:19:46;18.40;79.90
8043;DHT22;4064;48.132;11.366;2024-02-16T13:22:11;18.20;79.90
8043;DHT22;4064;48.132;11.366;2024-02-16T13:24:37;18.00;79.60
8043;DHT22;4064;48.132;11.366;2024-02-16T13:27:02;17.80;80.50
8043;DHT22;4064;48.132;11.366;2024-02-16T13:29:29;17.70;80.40
8043;DHT22;4064;48.132;11.366;2024-02-16T13:31:55;17.50;80.90
8043;DHT22;4064;48.132;11.366;2024-02-16T13:34:20;17.40;81.40
8043;DHT22;4064;48.132;11.366;2024-02-16T13:36:46;17.30;81.30
8043;DHT22;4064;48.132;11.366;2024-02-16T13:39:11;17.30;82.40
8043;DHT22;4064;48.132;11.366;2024-02-16T13:41:39;17.20;82.40
8043;DHT22;4064;48.132;11.366;2024-02-16T13:44:05;17.10;82.00
8043;DHT22;4064;48.132;11.366;2024-02-16T13:46:31;17.00;84.20
8043;DHT22;4064;48.132;11.366;2024-02-16T13:48:56;17.10;84.00
8043;DHT22;4064;48.132;11.366;2024-02-16T13:51:22;17.00;83.80
8043;DHT22;4064;48.132;11.366;2024-02-16T13:53:48;17.00;84.50
8043;DHT22;4064;48.132;11.366;2024-02-16T13:56:14;17.00;84.40
8043;DHT22;4064;48.132;11.366;2024-02-16T13:58:39;17.00;85.30
8043;DHT22;4064;48.132;11.366;2024-02-16T14:01:05;16.90;84.90
8043;DHT22;4064;48.132;11.366;2024-02-16T14:03:31;16.90;85.80
8043;DHT22;4064;48.132;11.366;2024-02-16T14:05:58;16.80;85.90
8043;DHT22;4064;48.132;11.366;2024-02-16T14:08:24;16.80;86.70
8043;DHT22;4064;48.132;11.366;2024-02-16T14:10:49;16.80;86.20
8043;DHT22;4064;48.132;11.366;2024-02-16T14:13:15;16.90;86.30
8043;DHT22;4064;48.132;11.366;2024-02-16T14:15:42;17.00;87.20
8043;DHT22;4064;48.132;11.366;2024-02-16T14:18:08;17.10;86.50
8043;DHT22;4064;48.132;11.366;2024-02-16T14:20:34;17.10;87.00
8043;DHT22;4064;48.132;11.366;2024-02-16T14:23:00;17.20;86.90
8043;DHT22;4064;48.132;11.366;2024-02-16T14:25:28;17.20;86.80
8043;DHT22;4064;48.132;11.366;2024-02-16T14:27:54;17.30;87.20
8043;DHT22;4064;48.132;11.366;2024-02-16T14:30:20;17.30;85.50
8043;DHT22;4064;48.132;11.366;2024-02-16T14:32:46;17.50;86.90
8043;DHT22;4064;48.132;11.366;2024-02-16T14:35:12;17.40;86.90
8043;DHT22;4064;48.132;11.366;2024-02-16T14:37:37;17.60;86.90
8043;DHT22;4064;48.132;11.366;2024-02-16T14:40:04;17.60;85.80
8043;DHT22;4064;48.132;11.366;2024-02-16T14:42:31;17.40;85.40
8043;DHT22;4064;48.132;11.366;2024-02-16T14:44:57;17.30;85.20
8043;DHT22;4064;48.132;11.366;2024-02-16T14:47:23;17.30;84.80
8043;DHT22;4064;48.132;11.366;2024-02-16T14:49:48;17.20;85.50
8043;DHT22;4064;48.132;11.366;2024-02-16T14:52:14;17.20;85.40
8043;DHT22;4064;48.132;11.366;2024-02-16T14:54:40;16.90;86.40
8043;DHT22;4064;48.132;11.366;2024-02-16T14:57:05;16.60;86.70
8043;DHT22;4064;48.132;11.366;2024-02-16T14:59:31;16.40;87.40
8043;DHT22;4064;48.132;11.366;2024-02-16T15:01:56;16.30;87.50
8043;DHT22;4064;48.132;11.366;2024-02-16T15:04:24;16.10;88.60
8043;DHT22;4064;48.132;11.366;2024-02-16T15:06:49;16.00;88.80
8043;DHT22;4064;48.132;11.366;2024-02-16T15:09:15;15.80;89.60
8043;DHT22;4064;48.132;11.366;2024-02-16T15:11:40;15.70;89.50
8043;DHT22;4064;48.132;11.366;2024-02-16T15:14:06;15.60;89.40
8043;DHT22;4064;48.132;11.366;2024-02-16T15:16:32;15.50;89.40
8043;DHT22;4064;48.132;11.366;2024-02-16T15:18:57;15.40;89.60
8043;DHT22;4064;48.132;11.366;2024-02-16T15:21:23;15.30;89.80
8043;DHT22;4064;48.132;11.366;2024-02-16T15:23:49;15.10;90.50
8043;DHT22;4064;48.132;11.366;2024-02-16T15:26:15;15.00;90.30
8043;DHT22;4064;48.132;11.366;2024-02-16T15:28:40;14.80;90.40
8043;DHT22;4064;48.132;11.366;2024-02-16T15:31:06;14.80;90.50
8043;DHT22;4064;48.132;11.366;2024-02-16T15:33:32;14.70;90.70
8043;DHT22;4064;48.132;11.366;2024-02-16T15:35:58;14.60;90.70
8043;DHT22;4064;48.132;11.366;2024-02-16T15:38:24;14.50;90.80
8043;DHT22;4064;48.132;11.366;2024-02-16T15:40:50;14.50;91.10
8043;DHT22;4064;48.132;11.366;2024-02-16T15:43:15;14.30;91.70
8043;DHT22;4064;48.132;11.366;2024-02-16T15:45:41;14.20;92.00
8043;DHT22;4064;48.132;11.366;2024-02-16T15:48:08;14.10;91.80
8043;DHT22;4064;48.132;11.366;2024-02-16T15:50:38;14.10;91.80